sensor_id;sensor_type;location;lat;lon;timestamp;temperature;humidity
51863;DHT22;37900;52.996;6.278;2022-07-24T00:00:23;21.00;99.90
51863;DHT22;37900;52.996;6.278;2022-07-24T00:02:49;20.90;99.90
51863;DHT22;37900;52.996;6.278;2022-07-24T00:05:15;20.90;99.90
51863;DHT22;37900;52.996;6.278;2022-07-24T00:07:41;20.90;99.90
51863;DHT22;37900;52.996;6.278;2022-07-24T00:10:07;20.90;99.90
51863;DHT22;37900;52.996;6.278;2022-07-24T00:12:33;20.90;99.90
51863;DHT22;37900;52.996;6.278;2022-07-24T00:14:59;20.90;99.90
51863;DHT22;37900;52.996;6.278;2022-07-24T00:17:25;20.90;99.90
51863;DHT22;37900;52.996;6.278;2022-07-24T00:19:51;20.90;99.90
51863;DHT22;37900;52.996;6.278;2022-07-24T00:22:16;20.90;99.90
51863;DHT22;37900;52.996;6.278;2022-07-24T00:24:42;20.90;99.90
51863;DHT22;37900;52.996;6.278;2022-07-24T00:27:08;20.90;99.90
51863;DHT22;37900;52.996;6.278;2022-07-24T00:29:33;20.90;99.90
51863;DHT22;37900;52.996;6.278;2022-07-24T00:31:59;20.90;99.90
51863;DHT22;37900;52.996;6.278;2022-07-24T00:34:25;20.90;99.90
51863;DHT22;37900;52.996;6.278;2022-07-24T00:36:50;20.90;99.90
51863;DHT22;37900;52.996;6.278;2022-07-24T00:39:16;20.90;99.90
51863;DHT22;37900;52.996;6.278;2022-07-24T00:41:42;20.90;99.90
51863;DHT22;37900;52.996;6.278;2022-07-24T00:44:12;20.90;99.90
51863;DHT22;37900;52.996;6.278;2022-07-24T00:46:41;20.90;99.90
51863;DHT22;37900;52.996;6.278;2022-07-24T00:49:13;20.90;99.90
51863;DHT22;37900;52.996;6.278;2022-07-24T00:51:40;20.90;99.90
51863;DHT22;37900;52.996;6.278;2022-07-24T00:54:07;20.90;99.90
51863;DHT22;37900;52.996;6.278;2022-07-24T00:56:34;20.90;99.90
51863;DHT22;37900;52.996;6.278;2022-07-24T00:59:01;20.90;99.90
51863;DHT22;37900;52.996;6.278;2022-07-24T01:01:27;20.90;99.90
51863;DHT22;37900;52.996;6.278;2022-07-24T01:03:53;20.90;99.90
51863;DHT22;37900;52.996;6.278;2022-07-24T01:06:19;20.90;99.90
51863;DHT22;37900;52.996;6.278;2022-07-24T01:08:45;20.80;99.90
51863;DHT22;37900;52.996;6.278;2022-07-24T01:11:11;20.80;99.90
51863;DHT22;37900;52.996;6.278;2022-07-24T01:13:38;20.90;99.90
51863;DHT22;37900;52.996;6.278;2022-07-24T01:16:04;20.80;99.90
51863;DHT22;37900;52.996;6.278;2022-07-24T01:18:30;20.80;99.90
51863;DHT22;37900;52.996;6.278;2022-07-24T01:20:56;20.90;99.90
51863;DHT22;37900;52.996;6.278;2022-07-24T01:23:22;20.80;99.90
51863;DHT22;37900;52.996;6.278;2022-07-24T01:25:49;20.80;99.90
51863;DHT22;37900;52.996;6.278;2022-07-24T01:28:14;20.80;99.90
51863;DHT22;37900;52.996;6.278;2022-07-24T01:30:40;20.80;99.90
51863;DHT22;37900;52.996;6.278;2022-07-24T01:33:06;20.80;99.90
51863;DHT22;37900;52.996;6.278;2022-07-24T01:35:33;20.80;99.90
51863;DHT22;37900;52.996;6.278;2022-07-24T01:37:58;20.80;99.90
51863;DHT22;37900;52.996;6.278;2022-07-24T01:40:24;20.80;99.90
51863;DHT22;37900;52.996;6.278;2022-07-24T01:42:50;20.80;99.90
51863;DHT22;37900;52.996;6.278;2022-07-24T01:45:17;20.80;99.90
51863;DHT22;37900;52.996;6.278;2022-07-24T01:47:43;20.80;99.90
51863;DHT22;37900;52.996;6.278;2022-07-24T01:50:10;20.80;99.90
51863;DHT22;37900;52.996;6.278;2022-07-24T01:52:36;20.80;99.90
51863;DHT22;37900;52.996;6.278;2022-07-24T01:55:03;20.80;99.90
51863;DHT22;37900;52.996;6.278;2022-07-24T01:57:30;20.80;99.90
51863;DHT22;37900;52.996;6.278;2022-07-24T01:59:57;20.80;99.90
51863;DHT22;37900;52.996;6.278;2022-07-24T02:02:23;20.80;99.90
51863;DHT22;37900;52.996;6.278;2022-07-24T02:04:49;20.80;99.90
51863;DHT22;37900;52.996;6.278;2022-07-24T02:07:15;20.80;99.90
51863;DHT22;37900;52.996;6.278;2022-07-24T02:09:40;20.80;99.90
51863;DHT22;37900;52.996;6.278;2022-07-24T02:12:06;20.80;99.90
51863;DHT22;37900;52.996;6.278;2022-07-24T02:14:32;20.80;99.90
51863;DHT22;37900;52.996;6.278;2022-07-24T02:16:58;20.80;99.90
51863;DHT22;37900;52.996;6.278;2022-07-24T02:19:23;20.80;99.90
51863;DHT22;37900;52.996;6.278;2022-07-24T02:21:50;20.80;99.90
51863;DHT22;37900;52.996;6.278;2022-07-24T02:24:15;20.80;99.90
51863;DHT22;37900;52.996;6.278;2022-07-24T02:26:42;20.80;99.90
51863;DHT22;37900;52.996;6.278;2022-07-24T02:29:07;20.80;99.90
51863;DHT22;37900;52.996;6.278;2022-07-24T02:31:34;20.80;99.90
51863;DHT22;37900;52.996;6.278;2022-07-24T02:33:59;20.80;99.90
51863;DHT22;37900;52.996;6.278;2022-07-24T02:36:26;20.70;99.90
51863;DHT22;37900;52.996;6.278;2022-07-24T02:38:52;20.80;99.90
51863;DHT22;37900;52.996;6.278;2022-07-24T02:41:17;20.70;99.90
51863;DHT22;37900;52.996;6.278;2022-07-24T02:43:43;20.70;99.90
51863;DHT22;37900;52.996;6.278;2022-07-24T02:46:09;20.70;99.90
51863;DHT22;37900;52.996;6.278;2022-07-24T02:48:35;20.70;99.90
51863;DHT22;37900;52.996;6.278;2022-07-24T02:51:02;20.80;99.90
51863;DHT22;37900;52.996;6.278;2022-07-24T02:53:28;20.70;99.90
51863;DHT22;37900;52.996;6.278;2022-07-24T02:55:54;20.70;99.90
51863;DHT22;37900;52.996;6.278;2022-07-24T02:58:20;20.70;99.90
51863;DHT22;37900;52.996;6.278;2022-07-24T03:00:45;20.70;99.90
51863;DHT22;37900;52.996;6.278;2022-07-24T03:03:11;20.70;99.90
51863;DHT22;37900;52.996;6.278;2022-07-24T03:05:37;20.70;99.90
51863;DHT22;37900;52.996;6.278;2022-07-24T03:08:03;20.70;99.90
51863;DHT22;37900;52.996;6.278;2022-07-24T03:10:29;20.80;99.90
51863;DHT22;37900;52.996;6.278;2022-07-24T03:12:55;20.80;99.90
51863;DHT22;37900;52.996;6.278;2022-07-24T03:15:20;20.70;99.90
51863;DHT22;37900;52.996;6.278;2022-07-24T03:17:54;20.70;99.90
51863;DHT22;37900;52.996;6.278;2022-07-24T03:20:21;20.70;99.90
51863;DHT22;37900;52.996;6.278;2022-07-24T03:22:47;20.80;99.90
51863;DHT22;37900;52.996;6.278;2022-07-24T03:25:13;20.80;99.90
51863;DHT22;37900;52.996;6.278;2022-07-24T03:27:39;20.80;99.90
51863;DHT22;37900;52.996;6.278;2022-07-24T03:30:06;20.70;99.90
51863;DHT22;37900;52.996;6.278;2022-07-24T03:32:32;20.70;99.90
51863;DHT22;37900;52.996;6.278;2022-07-24T03:34:58;20.70;99.90
51863;DHT22;37900;52.996;6.278;2022-07-24T03:37:24;20.70;99.90
51863;DHT22;37900;52.996;6.278;2022-07-24T03:39:50;20.70;99.90
51863;DHT22;37900;52.996;6.278;2022-07-24T03:42:16;20.70;99.90
51863;DHT22;37900;52.996;6.278;2022-07-24T03:44:41;20.70;99.90
51863;DHT22;37900;52.996;6.278;2022-07-24T03:47:07;20.70;99.90
51863;DHT22;37900;52.996;6.278;2022-07-24T03:49:33;20.70;99.90
51863;DHT22;37900;52.996;6.278;2022-07-24T03:51:59;20.70;99.90
51863;DHT22;37900;52.996;6.278;2022-07-24T03:54:25;20.70;99.90
51863;DHT22;37900;52.996;6.278;2022-07-24T03:56:51;20.70;99.90
51863;DHT22;37900;52.996;6.278;2022-07-24T03:59:17;20.70;99.90
51863;DHT22;37900;52.996;6.278;2022-07-24T04:01:43;20.70;99.90
51863;DHT22;37900;52.996;6.278;2022-07-24T04:04:09;20.70;99.90
51863;DHT22;37900;52.996;6.278;2022-07-24T04:06:35;20.70;99.90
51863;DHT22;37900;52.996;6.278;2022-07-24T04:09:02;20.70;99.90
51863;DHT22;37900;52.996;6.278;2022-07-24T04:11:29;20.80;99.90
51863;DHT22;37900;52.996;6.278;2022-07-24T04:13:54;20.70;99.90
51863;DHT22;37900;52.996;6.278;2022-07-24T04:16:20;20.70;99.90
51863;DHT22;37900;52.996;6.278;2022-07-24T04:18:46;20.70;99.90
51863;DHT22;37900;52.996;6.278;2022-07-24T04:21:12;20.70;99.90
51863;DHT22;37900;52.996;6.278;2022-07-24T04:23:38;20.70;99.90
51863;DHT22;37900;52.996;6.278;2022-07-24T04:26:04;20.70;99.90
51863;DHT22;37900;52.996;6.278;2022-07-24T04:28:30;20.70;99.90
51863;DHT22;37900;52.996;6.278;2022-07-24T04:30:56;20.70;99.90
51863;DHT22;37900;52.996;6.278;2022-07-24T04:33:22;20.70;99.90
51863;DHT22;37900;52.996;6.278;2022-07-24T04:35:47;20.70;99.90
51863;DHT22;37900;52.996;6.278;2022-07-24T04:38:13;20.70;99.90
51863;DHT22;37900;52.996;6.278;2022-07-24T04:40:39;20.70;99.90
51863;DHT22;37900;52.996;6.278;2022-07-24T04:43:05;20.70;99.90
51863;DHT22;37900;52.996;6.278;2022-07-24T04:45:31;20.70;99.90
51863;DHT22;37900;52.996;6.278;2022-07-24T04:47:57;20.70;99.90
51863;DHT22;37900;52.996;6.278;2022-07-24T04:50:22;20.60;99.90
51863;DHT22;37900;52.996;6.278;2022-07-24T04:52:48;20.60;99.90
51863;DHT22;37900;52.996;6.278;2022-07-24T04:55:14;20.60;99.90
51863;DHT22;37900;52.996;6.278;2022-07-24T04:57:40;20.60;99.90
51863;DHT22;37900;52.996;6.278;2022-07-24T05:00:07;20.60;99.90
51863;DHT22;37900;52.996;6.278;2022-07-24T05:02:34;20.70;99.90
51863;DHT22;37900;52.996;6.278;2022-07-24T05:04:59;20.60;99.90
51863;DHT22;37900;52.996;6.278;2022-07-24T05:07:25;20.60;99.90
51863;DHT22;37900;52.996;6.278;2022-07-24T05:09:51;20.60;99.90
51863;DHT22;37900;52.996;6.278;2022-07-24T05:12:17;20.70;99.90
51863;DHT22;37900;52.996;6.278;2022-07-24T05:14:42;20.70;99.90
51863;DHT22;37900;52.996;6.278;2022-07-24T05:17:08;20.70;99.90
51863;DHT22;37900;52.996;6.278;2022-07-24T05:19:34;20.70;99.90
51863;DHT22;37900;52.996;6.278;2022-07-24T05:22:00;20.70;99.90
51863;DHT22;37900;52.996;6.278;2022-07-24T05:24:26;20.70;99.90
51863;DHT22;37900;52.996;6.278;2022-07-24T05:26:52;20.70;99.90
51863;DHT22;37900;52.996;6.278;2022-07-24T05:29:17;20.70;99.90
51863;DHT22;37900;52.996;6.278;2022-07-24T05:31:43;20.70;99.90
51863;DHT22;37900;52.996;6.278;2022-07-24T05:34:09;20.70;99.90
51863;DHT22;37900;52.996;6.278;2022-07-24T05:36:35;20.70;99.90
51863;DHT22;37900;52.996;6.278;2022-07-24T05:39:03;20.70;99.90
51863;DHT22;37900;52.996;6.278;2022-07-24T05:41:29;20.70;99.90
51863;DHT22;37900;52.996;6.278;2022-07-24T05:43:55;20.70;99.90
51863;DHT22;37900;52.996;6.278;2022-07-24T05:46:20;20.70;99.90
51863;DHT22;37900;52.996;6.278;2022-07-24T05:48:46;20.70;99.90
51863;DHT22;37900;52.996;6.278;2022-07-24T05:51:12;20.70;99.90
51863;DHT22;37900;52.996;6.278;2022-07-24T05:53:38;20.70;99.90
51863;DHT22;37900;52.996;6.278;2022-07-24T05:56:04;20.80;99.90
51863;DHT22;37900;52.996;6.278;2022-07-24T05:58:30;20.70;99.90
51863;DHT22;37900;52.996;6.278;2022-07-24T06:00:56;20.70;99.90
51863;DHT22;37900;52.996;6.278;2022-07-24T06:03:22;20.70;99.90
51863;DHT22;37900;52.996;6.278;2022-07-24T06:05:47;20.80;99.90
51863;DHT22;37900;52.996;6.278;2022-07-24T06:08:13;20.80;99.90
51863;DHT22;37900;52.996;6.278;2022-07-24T06:10:39;20.80;99.90
51863;DHT22;37900;52.996;6.278;2022-07-24T06:13:05;20.80;99.90
51863;DHT22;37900;52.996;6.278;2022-07-24T06:15:31;20.80;99.90
51863;DHT22;37900;52.996;6.278;2022-07-24T06:17:56;20.80;99.90
51863;DHT22;37900;52.996;6.278;2022-07-24T06:20:22;20.80;99.90
51863;DHT22;37900;52.996;6.278;2022-07-24T06:22:48;20.80;99.90
51863;DHT22;37900;52.996;6.278;2022-07-24T06:25:14;20.80;99.90
51863;DHT22;37900;52.996;6.278;2022-07-24T06:27:41;20.90;99.90
51863;DHT22;37900;52.996;6.278;2022-07-24T06:30:19;20.80;99.90
51863;DHT22;37900;52.996;6.278;2022-07-24T06:32:46;20.80;99.90
51863;DHT22;37900;52.996;6.278;2022-07-24T06:35:12;20.80;99.90
51863;DHT22;37900;52.996;6.278;2022-07-24T06:37:37;20.80;99.90
51863;DHT22;37900;52.996;6.278;2022-07-24T06:40:04;20.80;99.90
51863;DHT22;37900;52.996;6.278;2022-07-24T06:42:30;20.80;99.90
51863;DHT22;37900;52.996;6.278;2022-07-24T06:44:56;20.90;99.90
51863;DHT22;37900;52.996;6.278;2022-07-24T06:47:22;20.90;99.90
51863;DHT22;37900;52.996;6.278;2022-07-24T06:49:48;20.80;99.90
51863;DHT22;37900;52.996;6.278;2022-07-24T06:52:13;20.80;99.90
51863;DHT22;37900;52.996;6.278;2022-07-24T06:54:39;20.80;99.90
51863;DHT22;37900;52.996;6.278;2022-07-24T06:57:07;20.90;99.90
51863;DHT22;37900;52.996;6.278;2022-07-24T06:59:32;20.80;99.90
51863;DHT22;37900;52.996;6.278;2022-07-24T07:01:58;20.80;99.90
51863;DHT22;37900;52.996;6.278;2022-07-24T07:04:24;20.80;99.90
51863;DHT22;37900;52.996;6.278;2022-07-24T07:06:50;20.80;99.90
51863;DHT22;37900;52.996;6.278;2022-07-24T07:09:15;20.80;99.90
51863;DHT22;37900;52.996;6.278;2022-07-24T07:11:41;20.80;99.90
51863;DHT22;37900;52.996;6.278;2022-07-24T07:14:07;20.80;99.90
51863;DHT22;37900;52.996;6.278;2022-07-24T07:16:32;20.80;99.90
51863;DHT22;37900;52.996;6.278;2022-07-24T07:18:58;20.80;99.90
51863;DHT22;37900;52.996;6.278;2022-07-24T07:21:24;20.80;99.90
51863;DHT22;37900;52.996;6.278;2022-07-24T07:23:50;20.90;99.90
51863;DHT22;37900;52.996;6.278;2022-07-24T07:26:15;20.90;99.90
51863;DHT22;37900;52.996;6.278;2022-07-24T07:28:41;20.90;99.90
51863;DHT22;37900;52.996;6.278;2022-07-24T07:31:07;20.90;99.90
51863;DHT22;37900;52.996;6.278;2022-07-24T07:33:32;20.80;99.90
51863;DHT22;37900;52.996;6.278;2022-07-24T07:35:59;20.80;99.90
51863;DHT22;37900;52.996;6.278;2022-07-24T07:38:24;20.90;99.90
51863;DHT22;37900;52.996;6.278;2022-07-24T07:40:50;20.90;99.90
51863;DHT22;37900;52.996;6.278;2022-07-24T07:43:16;20.80;99.90
51863;DHT22;37900;52.996;6.278;2022-07-24T07:45:42;20.80;99.90
51863;DHT22;37900;52.996;6.278;2022-07-24T07:48:07;20.80;99.90
51863;DHT22;37900;52.996;6.278;2022-07-24T07:50:33;20.80;99.90
51863;DHT22;37900;52.996;6.278;2022-07-24T07:52:59;20.80;99.90
51863;DHT22;37900;52.996;6.278;2022-07-24T07:55:25;20.80;99.90
51863;DHT22;37900;52.996;6.278;2022-07-24T07:57:51;20.80;99.90
51863;DHT22;37900;52.996;6.278;2022-07-24T08:00:17;20.90;99.90
51863;DHT22;37900;52.996;6.278;2022-07-24T08:02:44;20.80;99.90
51863;DHT22;37900;52.996;6.278;2022-07-24T08:05:10;20.80;99.90
51863;DHT22;37900;52.996;6.278;2022-07-24T08:07:36;20.80;99.90
51863;DHT22;37900;52.996;6.278;2022-07-24T08:10:03;20.80;99.90
51863;DHT22;37900;52.996;6.278;2022-07-24T08:12:29;20.80;99.90
51863;DHT22;37900;52.996;6.278;2022-07-24T08:14:55;20.80;99.90
51863;DHT22;37900;52.996;6.278;2022-07-24T08:17:21;20.90;99.90
51863;DHT22;37900;52.996;6.278;2022-07-24T08:19:47;20.90;99.90
51863;DHT22;37900;52.996;6.278;2022-07-24T08:22:13;20.90;99.90
51863;DHT22;37900;52.996;6.278;2022-07-24T08:24:39;20.80;99.90
51863;DHT22;37900;52.996;6.278;2022-07-24T08:27:06;20.80;99.90
51863;DHT22;37900;52.996;6.278;2022-07-24T08:29:31;20.90;99.90
51863;DHT22;37900;52.996;6.278;2022-07-24T08:31:57;20.90;99.90
51863;DHT22;37900;52.996;6.278;2022-07-24T08:34:23;20.90;99.90
51863;DHT22;37900;52.996;6.278;2022-07-24T08:36:49;20.80;99.90
51863;DHT22;37900;52.996;6.278;2022-07-24T08:39:15;20.90;99.90
51863;DHT22;37900;52.996;6.278;2022-07-24T08:41:42;20.80;99.90
51863;DHT22;37900;52.996;6.278;2022-07-24T08:44:09;20.80;99.90
51863;DHT22;37900;52.996;6.278;2022-07-24T08:46:40;20.90;99.90
51863;DHT22;37900;52.996;6.278;2022-07-24T08:49:07;20.90;99.90
51863;DHT22;37900;52.996;6.278;2022-07-24T08:51:37;20.90;99.90
51863;DHT22;37900;52.996;6.278;2022-07-24T08:54:05;20.90;99.90
51863;DHT22;37900;52.996;6.278;2022-07-24T08:56:31;20.80;99.90
51863;DHT22;37900;52.996;6.278;2022-07-24T08:58:59;20.90;99.90
51863;DHT22;37900;52.996;6.278;2022-07-24T09:01:25;20.90;99.90
51863;DHT22;37900;52.996;6.278;2022-07-24T09:03:51;20.90;99.90
51863;DHT22;37900;52.996;6.278;2022-07-24T09:06:17;20.90;99.90
51863;DHT22;37900;52.996;6.278;2022-07-24T09:08:56;20.90;99.90
51863;DHT22;37900;52.996;6.278;2022-07-24T09:11:21;20.90;99.90
51863;DHT22;37900;52.996;6.278;2022-07-24T09:13:51;20.90;99.90
51863;DHT22;37900;52.996;6.278;2022-07-24T09:16:36;20.90;99.90
51863;DHT22;37900;52.996;6.278;2022-07-24T09:19:07;20.90;99.90
51863;DHT22;37900;52.996;6.278;2022-07-24T09:21:36;20.90;99.90
51863;DHT22;37900;52.996;6.278;2022-07-24T09:24:19;20.90;99.90
51863;DHT22;37900;52.996;6.278;2022-07-24T09:29:17;20.90;99.90
51863;DHT22;37900;52.996;6.278;2022-07-24T09:31:52;20.90;99.90
51863;DHT22;37900;52.996;6.278;2022-07-24T09:34:18;20.90;99.90
51863;DHT22;37900;52.996;6.278;2022-07-24T09:37:05;20.90;99.90
51863;DHT22;37900;52.996;6.278;2022-07-24T09:39:33;20.90;99.90
51863;DHT22;37900;52.996;6.278;2022-07-24T09:42:00;20.90;99.90
51863;DHT22;37900;52.996;6.278;2022-07-24T09:44:27;20.90;99.90
51863;DHT22;37900;52.996;6.278;2022-07-24T09:47:10;20.90;99.90
51863;DHT22;37900;52.996;6.278;2022-07-24T09:49:36;20.90;99.90
51863;DHT22;37900;52.996;6.278;2022-07-24T09:52:16;20.90;99.90
51863;DHT22;37900;52.996;6.278;2022-07-24T09:54:45;20.90;99.90
51863;DHT22;37900;52.996;6.278;2022-07-24T09:57:25;20.90;99.90
51863;DHT22;37900;52.996;6.278;2022-07-24T10:02:22;20.90;99.90
51863;DHT22;37900;52.996;6.278;2022-07-24T10:04:49;20.90;99.90
51863;DHT22;37900;52.996;6.278;2022-07-24T10:07:17;21.00;99.90
51863;DHT22;37900;52.996;6.278;2022-07-24T10:09:52;20.90;99.90
51863;DHT22;37900;52.996;6.278;2022-07-24T10:12:23;20.90;99.90
51863;DHT22;37900;52.996;6.278;2022-07-24T10:14:51;20.90;99.90
51863;DHT22;37900;52.996;6.278;2022-07-24T10:17:18;21.00;99.90
51863;DHT22;37900;52.996;6.278;2022-07-24T10:19:46;21.00;99.90
51863;DHT22;37900;52.996;6.278;2022-07-24T10:22:22;21.00;99.90
51863;DHT22;37900;52.996;6.278;2022-07-24T10:25:07;21.00;99.90
51863;DHT22;37900;52.996;6.278;2022-07-24T10:27:38;21.00;99.90
51863;DHT22;37900;52.996;6.278;2022-07-24T10:30:10;20.90;99.90
51863;DHT22;37900;52.996;6.278;2022-07-24T10:32:37;21.00;99.90
51863;DHT22;37900;52.996;6.278;2022-07-24T10:35:23;21.00;99.90
51863;DHT22;37900;52.996;6.278;2022-07-24T10:38:08;21.00;99.90
51863;DHT22;37900;52.996;6.278;2022-07-24T10:40:44;21.00;99.90
51863;DHT22;37900;52.996;6.278;2022-07-24T10:43:12;21.00;99.90
51863;DHT22;37900;52.996;6.278;2022-07-24T10:53:28;21.00;99.90
51863;DHT22;37900;52.996;6.278;2022-07-24T10:59:05;21.00;99.90
51863;DHT22;37900;52.996;6.278;2022-07-24T11:01:44;21.00;99.90
51863;DHT22;37900;52.996;6.278;2022-07-24T11:07:11;21.00;99.90
51863;DHT22;37900;52.996;6.278;2022-07-24T11:10:01;21.00;99.90
51863;DHT22;37900;52.996;6.278;2022-07-24T11:12:32;21.00;99.90
51863;DHT22;37900;52.996;6.278;2022-07-24T11:15:04;21.00;99.90
51863;DHT22;37900;52.996;6.278;2022-07-24T11:17:49;21.00;99.90
51863;DHT22;37900;52.996;6.278;2022-07-24T11:20:17;21.00;99.90
51863;DHT22;37900;52.996;6.278;2022-07-24T11:22:50;21.00;99.90
51863;DHT22;37900;52.996;6.278;2022-07-24T11:25:19;21.00;99.90
51863;DHT22;37900;52.996;6.278;2022-07-24T11:30:15;21.00;99.90
51863;DHT22;37900;52.996;6.278;2022-07-24T11:32:42;21.00;99.90
51863;DHT22;37900;52.996;6.278;2022-07-24T11:35:08;21.00;99.90
51863;DHT22;37900;52.996;6.278;2022-07-24T11:37:38;21.00;99.90
51863;DHT22;37900;52.996;6.278;2022-07-24T11:40:06;21.00;99.90
51863;DHT22;37900;52.996;6.278;2022-07-24T11:42:33;21.00;99.90
51863;DHT22;37900;52.996;6.278;2022-07-24T11:44:59;21.00;99.90
51863;DHT22;37900;52.996;6.278;2022-07-24T11:47:29;21.10;99.90
51863;DHT22;37900;52.996;6.278;2022-07-24T11:50:00;21.00;99.90
51863;DHT22;37900;52.996;6.278;2022-07-24T11:54:55;21.00;99.90
51863;DHT22;37900;52.996;6.278;2022-07-24T11:57:23;21.00;99.90
51863;DHT22;37900;52.996;6.278;2022-07-24T11:59:50;21.00;99.90
51863;DHT22;37900;52.996;6.278;2022-07-24T12:02:17;21.00;99.90
51863;DHT22;37900;52.996;6.278;2022-07-24T12:04:44;21.10;99.90
51863;DHT22;37900;52.996;6.278;2022-07-24T12:07:12;21.00;99.90
51863;DHT22;37900;52.996;6.278;2022-07-24T12:09:46;21.10;99.90
51863;DHT22;37900;52.996;6.278;2022-07-24T12:12:30;21.00;99.90
51863;DHT22;37900;52.996;6.278;2022-07-24T12:15:10;21.00;99.90
51863;DHT22;37900;52.996;6.278;2022-07-24T12:18:03;21.10;99.90
51863;DHT22;37900;52.996;6.278;2022-07-24T12:22:56;21.10;99.90
51863;DHT22;37900;52.996;6.278;2022-07-24T12:25:23;21.10;99.90
51863;DHT22;37900;52.996;6.278;2022-07-24T12:27:50;21.10;99.90
51863;DHT22;37900;52.996;6.278;2022-07-24T12:30:25;21.00;99.90
51863;DHT22;37900;52.996;6.278;2022-07-24T12:35:25;21.10;99.90
51863;DHT22;37900;52.996;6.278;2022-07-24T12:37:52;21.10;99.90
51863;DHT22;37900;52.996;6.278;2022-07-24T12:40:32;21.10;99.90
51863;DHT22;37900;52.996;6.278;2022-07-24T12:43:04;21.10;99.90
51863;DHT22;37900;52.996;6.278;2022-07-24T12:45:31;21.10;99.90
51863;DHT22;37900;52.996;6.278;2022-07-24T12:48:18;21.10;99.90
51863;DHT22;37900;52.996;6.278;2022-07-24T12:53:28;21.10;99.90
51863;DHT22;37900;52.996;6.278;2022-07-24T12:58:56;21.10;99.90
51863;DHT22;37900;52.996;6.278;2022-07-24T13:01:25;21.10;99.90
51863;DHT22;37900;52.996;6.278;2022-07-24T13:04:01;21.10;99.90
51863;DHT22;37900;52.996;6.278;2022-07-24T13:06:36;21.10;99.90
51863;DHT22;37900;52.996;6.278;2022-07-24T13:09:03;21.10;99.90
51863;DHT22;37900;52.996;6.278;2022-07-24T13:11:29;21.20;99.90
51863;DHT22;37900;52.996;6.278;2022-07-24T13:13:55;21.10;99.90
51863;DHT22;37900;52.996;6.278;2022-07-24T13:16:21;21.20;99.90
51863;DHT22;37900;52.996;6.278;2022-07-24T13:18:49;21.20;99.90
51863;DHT22;37900;52.996;6.278;2022-07-24T13:21:16;21.10;99.90
51863;DHT22;37900;52.996;6.278;2022-07-24T13:23:44;21.20;99.90
51863;DHT22;37900;52.996;6.278;2022-07-24T13:26:10;21.20;99.90
51863;DHT22;37900;52.996;6.278;2022-07-24T13:28:36;21.20;99.90
51863;DHT22;37900;52.996;6.278;2022-07-24T13:31:01;21.20;99.90
51863;DHT22;37900;52.996;6.278;2022-07-24T13:33:28;21.20;99.90
51863;DHT22;37900;52.996;6.278;2022-07-24T13:35:53;21.20;99.90
51863;DHT22;37900;52.996;6.278;2022-07-24T13:38:19;21.20;99.90
51863;DHT22;37900;52.996;6.278;2022-07-24T13:40:45;21.20;99.90
51863;DHT22;37900;52.996;6.278;2022-07-24T13:43:10;21.20;99.90
51863;DHT22;37900;52.996;6.278;2022-07-24T13:45:36;21.20;99.90
51863;DHT22;37900;52.996;6.278;2022-07-24T13:48:02;21.20;99.90
51863;DHT22;37900;52.996;6.278;2022-07-24T13:50:28;21.20;99.90
51863;DHT22;37900;52.996;6.278;2022-07-24T13:52:54;21.20;99.90
51863;DHT22;37900;52.996;6.278;2022-07-24T13:55:20;21.20;99.90
51863;DHT22;37900;52.996;6.278;2022-07-24T13:57:45;21.20;99.90
51863;DHT22;37900;52.996;6.278;2022-07-24T14:00:12;21.20;99.90
51863;DHT22;37900;52.996;6.278;2022-07-24T14:02:38;21.20;99.90
51863;DHT22;37900;52.996;6.278;2022-07-24T14:05:04;21.20;99.90
51863;DHT22;37900;52.996;6.278;2022-07-24T14:07:30;21.20;99.90
51863;DHT22;37900;52.996;6.278;2022-07-24T14:09:56;21.20;99.90
51863;DHT22;37900;52.996;6.278;2022-07-24T14:12:22;21.30;99.90
51863;DHT22;37900;52.996;6.278;2022-07-24T14:14:47;21.20;99.90
51863;DHT22;37900;52.996;6.278;2022-07-24T14:17:13;21.20;99.90
51863;DHT22;37900;52.996;6.278;2022-07-24T14:19:39;21.30;99.90
51863;DHT22;37900;52.996;6.278;2022-07-24T14:22:05;21.30;99.90
51863;DHT22;37900;52.996;6.278;2022-07-24T14:24:30;21.20;99.90
51863;DHT22;37900;52.996;6.278;2022-07-24T14:26:56;21.30;99.90
51863;DHT22;37900;52.996;6.278;2022-07-24T14:29:23;21.30;99.90
51863;DHT22;37900;52.996;6.278;2022-07-24T14:31:49;21.30;99.90
51863;DHT22;37900;52.996;6.278;2022-07-24T14:34:16;21.30;99.90
51863;DHT22;37900;52.996;6.278;2022-07-24T14:36:42;21.30;99.90
51863;DHT22;37900;52.996;6.278;2022-07-24T14:39:07;21.30;99.90
51863;DHT22;37900;52.996;6.278;2022-07-24T14:41:34;21.30;99.90
51863;DHT22;37900;52.996;6.278;2022-07-24T14:44:00;21.30;99.90
51863;DHT22;37900;52.996;6.278;2022-07-24T14:46:25;21.30;99.90
51863;DHT22;37900;52.996;6.278;2022-07-24T14:48:51;21.30;99.90
51863;DHT22;37900;52.996;6.278;2022-07-24T14:51:17;21.30;99.90
51863;DHT22;37900;52.996;6.278;2022-07-24T14:53:42;21.30;99.90
51863;DHT22;37900;52.996;6.278;2022-07-24T14:56:08;21.40;99.90
51863;DHT22;37900;52.996;6.278;2022-07-24T14:58:34;21.30;99.90
51863;DHT22;37900;52.996;6.278;2022-07-24T15:01:00;21.30;99.90
51863;DHT22;37900;52.996;6.278;2022-07-24T15:03:26;21.30;99.90
51863;DHT22;37900;52.996;6.278;2022-07-24T15:05:51;21.40;99.90
51863;DHT22;37900;52.996;6.278;2022-07-24T15:08:17;21.40;99.90
51863;DHT22;37900;52.996;6.278;2022-07-24T15:10:43;21.40;99.90
51863;DHT22;37900;52.996;6.278;2022-07-24T15:13:08;21.40;99.90
51863;DHT22;37900;52.996;6.278;2022-07-24T15:15:34;21.30;99.90
51863;DHT22;37900;52.996;6.278;2022-07-24T15:18:00;21.40;99.90
51863;DHT22;37900;52.996;6.278;2022-07-24T15:20:26;21.30;99.90
51863;DHT22;37900;52.996;6.278;2022-07-24T15:22:51;21.40;99.90
51863;DHT22;37900;52.996;6.278;2022-07-24T15:25:17;21.30;99.90
51863;DHT22;37900;52.996;6.278;2022-07-24T15:27:43;21.40;99.90
51863;DHT22;37900;52.996;6.278;2022-07-24T15:30:16;21.40;99.90
51863;DHT22;37900;52.996;6.278;2022-07-24T15:32:42;21.30;99.90
51863;DHT22;37900;52.996;6.278;2022-07-24T15:35:08;21.40;99.90
51863;DHT22;37900;52.996;6.278;2022-07-24T15:37:33;21.40;99.90
51863;DHT22;37900;52.996;6.278;2022-07-24T15:39:59;21.30;99.90
51863;DHT22;37900;52.996;6.278;2022-07-24T15:42:26;21.40;99.90
51863;DHT22;37900;52.996;6.278;2022-07-24T15:44:52;21.30;99.90
51863;DHT22;37900;52.996;6.278;2022-07-24T15:47:18;21.30;99.90
51863;DHT22;37900;52.996;6.278;2022-07-24T15:49:43;21.30;99.90
51863;DHT22;37900;52.996;6.278;2022-07-24T15:52:09;21.30;99.90
51863;DHT22;37900;52.996;6.278;2022-07-24T15:54:35;21.40;99.90
51863;DHT22;37900;52.996;6.278;2022-07-24T15:57:01;21.30;99.90
51863;DHT22;37900;52.996;6.278;2022-07-24T15:59:27;21.30;99.90
51863;DHT22;37900;52.996;6.278;2022-07-24T16:01:52;21.30;99.90
51863;DHT22;37900;52.996;6.278;2022-07-24T16:04:18;21.30;99.90